Time;durP1;ratioP1;P1;durP2;ratioP2;P2;SDS_P1;SDS_P2;PMS_P1;PMS_P2;Temp;Humidity;BMP_temperature;BMP_pressure;BME280_temperature;BME280_humidity;BME280_pressure;Samples;Min_cycle;Max_cycle;Signal;HPM_P1;HPM_P2
2021/06/20 00:00:16;;;;;;;2.20;1.77;;;27.10;99.90;;;;;;5071228;28;20336;-81
2021/06/20 00:02:43;;;;;;;1.37;1.27;;;27.10;99.90;;;;;;5071590;28;20197;-81
2021/06/20 00:05:12;;;;;;;3.40;1.33;;;27.20;99.90;;;;;;5071012;28;20169;-80
2021/06/20 00:07:45;;;;;;;0.60;0.60;;;27.20;99.90;;;;;;5072313;28;20181;-80
2021/06/20 00:10:16;;;;;;;0.97;0.90;;;27.30;99.90;;;;;;5069392;28;20173;-81
2021/06/20 00:12:42;;;;;;;1.13;1.10;;;27.40;99.90;;;;;;5073455;28;20197;-80
2021/06/20 00:15:12;;;;;;;1.20;1.10;;;27.40;99.90;;;;;;5071931;28;20241;-80
2021/06/20 00:17:38;;;;;;;1.17;1.10;;;27.40;99.90;;;;;;5072692;28;20177;-80
2021/06/20 00:20:06;;;;;;;1.15;1.05;;;27.50;99.90;;;;;;5069507;28;20530;-81
2021/06/20 00:22:32;;;;;;;2.37;1.10;;;27.50;99.90;;;;;;5065550;28;20213;-81
2021/06/20 00:24:58;;;;;;;2.38;2.00;;;27.30;99.90;;;;;;5072638;28;20185;-81
2021/06/20 00:27:24;;;;;;;5.33;2.23;;;27.30;99.90;;;;;;5071231;28;20267;-81
2021/06/20 00:29:50;;;;;;;2.03;1.55;;;27.30;99.90;;;;;;5075218;28;20681;-81
2021/06/20 00:32:15;;;;;;;1.15;1.02;;;27.30;99.90;;;;;;5075180;28;20205;-81
2021/06/20 00:34:41;;;;;;;2.43;1.27;;;27.20;99.90;;;;;;5073101;28;20214;-81
2021/06/20 00:37:07;;;;;;;1.00;1.00;;;27.10;99.90;;;;;;5076048;28;20256;-80
2021/06/20 00:39:33;;;;;;;5.13;1.97;;;27.00;99.90;;;;;;5077702;28;20691;-80
2021/06/20 00:41:59;;;;;;;1.50;1.40;;;27.00;99.90;;;;;;5077170;28;20277;-81
2021/06/20 00:44:24;;;;;;;0.83;0.83;;;27.10;99.90;;;;;;5075326;28;20177;-81
2021/06/20 00:46:50;;;;;;;0.67;0.67;;;27.10;99.90;;;;;;5075158;28;20272;-80
2021/06/20 00:49:16;;;;;;;2.30;2.10;;;27.10;99.90;;;;;;5077786;28;20220;-81
2021/06/20 00:51:42;;;;;;;1.97;1.67;;;27.20;99.90;;;;;;5077807;28;20569;-81
2021/06/20 00:54:08;;;;;;;1.00;1.00;;;27.30;99.90;;;;;;5078151;28;20181;-81
2021/06/20 00:56:34;;;;;;;1.50;1.03;;;27.30;99.90;;;;;;5076726;28;20675;-81
2021/06/20 00:59:02;;;;;;;1.47;1.23;;;27.40;99.90;;;;;;5109459;28;20183;-81
2021/06/20 01:01:32;;;;;;;1.80;1.60;;;27.50;99.90;;;;;;5076991;28;20187;-81
2021/06/20 01:03:58;;;;;;;3.07;1.67;;;27.50;99.90;;;;;;5076070;28;20525;-81
2021/06/20 01:06:25;;;;;;;1.30;1.20;;;27.40;99.90;;;;;;5076788;28;20207;-81
2021/06/20 01:08:51;;;;;;;1.17;1.08;;;27.40;99.90;;;;;;5077155;28;20287;-81
2021/06/20 01:11:18;;;;;;;1.03;0.93;;;27.40;99.90;;;;;;5078956;28;20232;-81
2021/06/20 01:13:44;;;;;;;1.50;0.83;;;27.40;99.90;;;;;;5076888;28;20299;-81
2021/06/20 01:16:10;;;;;;;1.10;0.90;;;27.50;99.90;;;;;;5076649;28;20700;-81
2021/06/20 01:18:36;;;;;;;1.17;1.07;;;27.50;99.90;;;;;;5075384;28;20214;-81
2021/06/20 01:21:02;;;;;;;1.70;1.30;;;27.50;99.90;;;;;;5075176;28;20263;-81
2021/06/20 01:23:28;;;;;;;1.30;1.20;;;27.50;99.90;;;;;;5078516;28;20256;-81
2021/06/20 01:25:55;;;;;;;2.83;1.60;;;27.40;99.90;;;;;;5077113;28;20177;-81
2021/06/20 01:28:26;;;;;;;1.43;1.17;;;27.40;99.90;;;;;;5075653;28;20211;-81
2021/06/20 01:30:59;;;;;;;1.10;1.03;;;27.30;99.90;;;;;;5078079;28;20173;-81
2021/06/20 01:33:26;;;;;;;1.83;1.27;;;27.30;99.90;;;;;;5077945;28;20228;-81
2021/06/20 01:35:53;;;;;;;2.90;1.47;;;27.20;99.90;;;;;;5077129;28;20170;-81
2021/06/20 01:38:19;;;;;;;1.87;1.50;;;27.00;99.90;;;;;;5076211;28;20189;-81
2021/06/20 01:40:45;;;;;;;1.70;1.20;;;27.00;99.90;;;;;;5077594;28;20236;-81
2021/06/20 01:43:11;;;;;;;2.10;1.20;;;26.90;99.90;;;;;;5076841;28;20649;-81
2021/06/20 01:45:39;;;;;;;1.13;1.10;;;26.80;99.90;;;;;;5077523;28;20263;-81
2021/06/20 01:48:06;;;;;;;1.40;1.30;;;26.80;99.90;;;;;;5077094;28;20208;-81
2021/06/20 01:50:32;;;;;;;2.17;2.03;;;26.80;99.90;;;;;;5076373;28;20173;-81
2021/06/20 01:53:12;;;;;;;1.10;1.00;;;26.80;99.90;;;;;;5075943;28;20193;-81
2021/06/20 01:55:40;;;;;;;9.40;1.23;;;26.70;99.90;;;;;;5074761;28;20189;-81
2021/06/20 01:58:07;;;;;;;1.50;1.27;;;26.60;99.90;;;;;;5072458;28;20181;-80
2021/06/20 02:00:37;;;;;;;1.70;1.00;;;26.60;99.90;;;;;;5068966;28;20190;-81
2021/06/20 02:03:11;;;;;;;2.47;2.10;;;26.50;99.90;;;;;;5075256;28;20757;-81
2021/06/20 02:05:40;;;;;;;2.63;1.43;;;26.50;99.90;;;;;;5077528;28;20177;-81
2021/06/20 02:08:06;;;;;;;2.93;2.40;;;26.40;99.90;;;;;;5076156;28;20208;-81
2021/06/20 02:10:32;;;;;;;1.03;0.93;;;26.30;99.90;;;;;;5072240;28;20641;-81
2021/06/20 02:12:57;;;;;;;3.47;1.07;;;26.20;99.90;;;;;;5073452;28;20208;-80
2021/06/20 02:15:23;;;;;;;1.37;1.07;;;26.10;99.90;;;;;;5078317;28;20708;-81
2021/06/20 02:17:49;;;;;;;1.47;1.10;;;26.00;99.90;;;;;;5076236;28;20607;-80
2021/06/20 02:20:18;;;;;;;0.43;0.43;;;25.90;99.90;;;;;;5075247;28;20173;-81
2021/06/20 02:22:46;;;;;;;0.50;0.50;;;25.80;99.90;;;;;;5066675;28;20282;-81
2021/06/20 02:25:14;;;;;;;0.60;0.60;;;25.70;99.90;;;;;;5078174;28;20213;-81
2021/06/20 02:27:42;;;;;;;1.00;0.70;;;25.60;99.90;;;;;;5077416;28;20177;-81
2021/06/20 02:30:09;;;;;;;0.83;0.73;;;25.60;99.90;;;;;;5074490;28;20595;-80
2021/06/20 02:32:36;;;;;;;0.60;0.60;;;25.60;99.90;;;;;;5074471;28;20831;-81
2021/06/20 02:35:03;;;;;;;2.33;1.10;;;25.50;99.90;;;;;;5078200;28;20192;-81
2021/06/20 02:37:31;;;;;;;2.23;1.27;;;25.50;99.90;;;;;;5076231;28;20274;-81
2021/06/20 02:39:57;;;;;;;1.47;0.80;;;25.50;99.90;;;;;;5073603;28;20185;-80
2021/06/20 02:42:23;;;;;;;2.33;0.70;;;25.40;99.90;;;;;;5077733;28;20712;-81
2021/06/20 02:44:49;;;;;;;0.50;0.50;;;25.40;99.90;;;;;;5077344;28;20185;-81
2021/06/20 02:47:15;;;;;;;3.50;1.10;;;25.40;99.90;;;;;;5073199;28;20177;-81
2021/06/20 02:49:42;;;;;;;2.20;0.80;;;25.50;99.90;;;;;;5074767;28;20267;-81
2021/06/20 02:52:09;;;;;;;2.80;1.10;;;25.40;99.90;;;;;;5071702;28;20284;-81
2021/06/20 02:54:36;;;;;;;0.53;0.53;;;25.40;99.90;;;;;;5078527;28;20227;-80
2021/06/20 02:57:02;;;;;;;1.93;1.03;;;25.40;99.90;;;;;;5076589;28;20173;-81
2021/06/20 02:59:27;;;;;;;1.53;0.60;;;25.40;99.90;;;;;;5074654;28;20189;-81
2021/06/20 03:01:54;;;;;;;0.50;0.50;;;25.30;99.90;;;;;;5075388;28;20197;-81
2021/06/20 03:04:19;;;;;;;0.83;0.63;;;25.30;99.90;;;;;;5077619;28;20179;-80
2021/06/20 03:06:45;;;;;;;1.80;0.60;;;25.30;99.90;;;;;;5076153;28;20275;-80
2021/06/20 03:09:11;;;;;;;0.37;0.37;;;25.30;99.90;;;;;;5077728;28;20199;-81
2021/06/20 03:11:43;;;;;;;4.40;0.97;;;25.20;99.90;;;;;;5077222;28;20199;-81
2021/06/20 03:14:11;;;;;;;6.07;1.83;;;25.20;99.90;;;;;;5075451;28;20656;-80
2021/06/20 03:16:37;;;;;;;10.87;1.00;;;25.10;99.90;;;;;;5076339;28;20181;-81
2021/06/20 03:19:04;;;;;;;1.77;1.67;;;25.10;99.90;;;;;;5077006;28;20195;-81
2021/06/20 03:21:30;;;;;;;2.20;1.07;;;25.00;99.90;;;;;;5075225;28;20672;-81
2021/06/20 03:23:55;;;;;;;1.57;0.90;;;25.00;99.90;;;;;;5078496;28;20188;-80
2021/06/20 03:26:21;;;;;;;1.17;0.80;;;25.00;99.90;;;;;;5078692;28;20184;-80
2021/06/20 03:28:47;;;;;;;0.70;0.70;;;25.10;99.90;;;;;;5077374;28;20219;-81
2021/06/20 03:31:12;;;;;;;1.33;0.73;;;25.00;99.90;;;;;;5078041;28;20189;-81
2021/06/20 03:33:38;;;;;;;4.70;0.63;;;25.00;99.90;;;;;;5078793;28;20208;-80
2021/06/20 03:36:04;;;;;;;0.40;0.40;;;25.00;99.90;;;;;;5076767;28;20181;-81
2021/06/20 03:38:30;;;;;;;0.40;0.40;;;25.00;99.90;;;;;;5077755;28;20264;-81
2021/06/20 03:40:56;;;;;;;0.50;0.50;;;25.10;99.90;;;;;;5078771;28;20194;-80
2021/06/20 03:43:21;;;;;;;0.33;0.33;;;25.10;99.90;;;;;;5078496;28;20556;-81
2021/06/20 03:45:47;;;;;;;1.20;1.00;;;25.00;99.90;;;;;;5078815;28;20187;-80
2021/06/20 03:48:13;;;;;;;2.03;1.13;;;24.90;99.90;;;;;;5076221;28;20231;-80
2021/06/20 03:50:38;;;;;;;2.00;1.73;;;24.90;99.90;;;;;;5077752;28;20182;-81
2021/06/20 03:53:04;;;;;;;0.50;0.50;;;24.90;99.90;;;;;;5079602;28;20672;-81
2021/06/20 03:55:30;;;;;;;1.70;1.60;;;24.90;99.90;;;;;;5078708;28;20203;-81
2021/06/20 03:57:56;;;;;;;0.63;0.63;;;24.80;99.90;;;;;;5067273;28;20197;-81
2021/06/20 04:00:21;;;;;;;0.53;0.50;;;24.70;99.90;;;;;;5078554;28;20189;-81
2021/06/20 04:02:47;;;;;;;1.57;1.27;;;24.60;99.90;;;;;;5078788;28;20253;-81
2021/06/20 04:05:15;;;;;;;0.90;0.77;;;24.60;99.90;;;;;;5068542;28;20178;-81
2021/06/20 04:07:41;;;;;;;0.63;0.53;;;24.50;99.90;;;;;;5079663;28;20215;-81
2021/06/20 04:10:07;;;;;;;2.77;1.30;;;24.40;99.90;;;;;;5085422;28;20255;-82
2021/06/20 04:12:33;;;;;;;0.53;0.53;;;24.40;99.90;;;;;;5086992;28;20196;-81
2021/06/20 04:14:58;;;;;;;0.87;0.60;;;24.40;99.90;;;;;;5085084;28;20189;-81
2021/06/20 04:17:26;;;;;;;0.63;0.57;;;24.40;99.90;;;;;;5065375;28;20196;-82
2021/06/20 04:19:52;;;;;;;5.53;0.70;;;24.30;99.90;;;;;;5067279;28;20193;-81
2021/06/20 04:22:17;;;;;;;0.77;0.77;;;24.30;99.90;;;;;;5071704;28;20738;-81
2021/06/20 04:24:43;;;;;;;0.60;0.60;;;24.30;99.90;;;;;;5067211;28;20189;-81
2021/06/20 04:27:09;;;;;;;0.83;0.60;;;24.30;99.90;;;;;;5072439;28;20189;-81
2021/06/20 04:29:35;;;;;;;1.33;0.80;;;24.40;99.90;;;;;;5071681;28;20212;-81
2021/06/20 04:32:00;;;;;;;1.43;1.33;;;24.40;99.90;;;;;;5071379;28;20224;-82
2021/06/20 04:34:26;;;;;;;0.47;0.47;;;24.40;99.90;;;;;;5071780;28;20215;-82
2021/06/20 04:36:52;;;;;;;3.60;1.13;;;24.60;99.90;;;;;;5071669;28;20238;-81
2021/06/20 04:39:19;;;;;;;0.77;0.50;;;24.40;99.90;;;;;;5070564;28;20177;-81
2021/06/20 04:41:45;;;;;;;0.40;0.40;;;24.30;99.90;;;;;;5059578;28;20246;-81
2021/06/20 04:47:10;;;;;;;2.20;0.90;;;24.00;99.90;;;;;;5044497;28;20222;-81
2021/06/20 04:49:36;;;;;;;1.23;0.93;;;24.00;99.90;;;;;;5069875;28;20592;-80
2021/06/20 04:52:05;;;;;;;4.50;1.00;;;24.00;99.90;;;;;;5071041;28;20284;-81
2021/06/20 04:54:33;;;;;;;0.70;0.70;;;23.90;99.90;;;;;;5069686;28;20177;-80
2021/06/20 04:56:59;;;;;;;0.83;0.63;;;23.90;99.90;;;;;;5069005;28;20296;-80
2021/06/20 04:59:24;;;;;;;0.80;0.67;;;23.90;99.90;;;;;;5068802;28;20709;-80
2021/06/20 05:01:50;;;;;;;1.30;0.83;;;23.70;99.90;;;;;;5068722;28;20205;-81
2021/06/20 05:04:16;;;;;;;0.40;0.40;;;23.70;99.90;;;;;;5072280;28;20246;-81
2021/06/20 05:06:41;;;;;;;3.57;0.53;;;23.70;99.90;;;;;;5069595;28;20221;-81
2021/06/20 05:09:07;;;;;;;0.60;0.60;;;23.90;99.90;;;;;;5069820;28;20291;-80
2021/06/20 05:11:32;;;;;;;0.60;0.60;;;24.10;99.90;;;;;;5065061;28;20177;-81
2021/06/20 05:13:58;;;;;;;0.70;0.70;;;24.20;99.90;;;;;;5071470;28;20563;-80
2021/06/20 05:16:24;;;;;;;0.80;0.80;;;24.40;99.90;;;;;;5069757;28;20278;-83
2021/06/20 05:18:50;;;;;;;0.30;0.30;;;24.40;99.90;;;;;;5067135;28;20193;-80
2021/06/20 05:21:15;;;;;;;0.67;0.50;;;24.50;99.90;;;;;;5071220;28;20177;-79
2021/06/20 05:23:41;;;;;;;0.67;0.67;;;24.50;99.90;;;;;;5077037;28;20220;-80
2021/06/20 05:26:07;;;;;;;3.03;0.90;;;24.50;99.90;;;;;;5070574;28;20260;-83
2021/06/20 05:28:32;;;;;;;0.87;0.67;;;24.60;99.90;;;;;;5104792;28;20205;-81
2021/06/20 05:30:58;;;;;;;0.40;0.40;;;24.70;99.90;;;;;;5074952;28;20264;-81
2021/06/20 05:33:24;;;;;;;0.40;0.40;;;24.70;99.90;;;;;;5075525;28;20193;-82
2021/06/20 05:35:49;;;;;;;0.20;0.20;;;24.90;99.90;;;;;;5074324;28;20169;-81
2021/06/20 05:38:15;;;;;;;1.33;0.63;;;24.90;99.90;;;;;;5075223;28;20196;-82
2021/06/20 05:40:42;;;;;;;0.40;0.40;;;24.90;99.90;;;;;;5075617;28;20216;-82
2021/06/20 05:43:08;;;;;;;0.60;0.43;;;24.90;99.90;;;;;;5074813;28;20212;-82
2021/06/20 05:45:34;;;;;;;2.07;0.90;;;25.00;99.90;;;;;;5075542;28;20177;-81
2021/06/20 05:47:59;;;;;;;0.83;0.83;;;25.00;99.90;;;;;;5075061;28;20257;-81
2021/06/20 05:50:25;;;;;;;0.47;0.47;;;25.10;99.90;;;;;;5067458;28;20277;-82
2021/06/20 05:52:52;;;;;;;0.50;0.50;;;25.20;99.90;;;;;;5072791;28;20208;-81
2021/06/20 05:55:18;;;;;;;0.70;0.70;;;25.00;99.90;;;;;;5073421;28;20208;-82
2021/06/20 05:57:43;;;;;;;0.53;0.53;;;25.00;99.90;;;;;;5072505;28;20185;-82
2021/06/20 06:00:10;;;;;;;1.70;1.37;;;25.10;99.90;;;;;;5075695;28;20602;-81
2021/06/20 06:02:36;;;;;;;1.47;1.23;;;25.20;99.90;;;;;;5076915;28;20298;-82
2021/06/20 06:05:03;;;;;;;0.50;0.50;;;25.20;99.90;;;;;;5074655;28;20265;-82
2021/06/20 06:07:29;;;;;;;0.53;0.53;;;25.10;99.90;;;;;;5081640;28;20219;-82
2021/06/20 06:09:55;;;;;;;0.63;0.63;;;25.10;99.90;;;;;;5076679;28;20221;-81
2021/06/20 06:12:23;;;;;;;0.57;0.53;;;25.00;99.90;;;;;;5070681;28;20205;-82
2021/06/20 06:14:54;;;;;;;0.77;0.70;;;24.90;99.90;;;;;;5072919;28;20554;-79
2021/06/20 06:17:24;;;;;;;1.00;0.90;;;25.00;99.90;;;;;;5071993;28;20181;-81
2021/06/20 06:19:50;;;;;;;3.50;0.80;;;25.10;99.90;;;;;;5069678;28;20563;-81
2021/06/20 06:22:20;;;;;;;1.83;1.07;;;25.20;99.90;;;;;;5073453;28;20761;-81
2021/06/20 06:24:47;;;;;;;0.63;0.63;;;25.40;99.90;;;;;;5073861;28;20187;-81
2021/06/20 06:27:14;;;;;;;1.43;0.40;;;25.60;99.90;;;;;;5073241;28;20661;-81
2021/06/20 06:29:39;;;;;;;0.40;0.40;;;25.80;99.90;;;;;;5071570;28;20215;-81
2021/06/20 06:32:06;;;;;;;0.73;0.73;;;25.70;99.90;;;;;;5072038;28;20201;-80
2021/06/20 06:34:33;;;;;;;1.10;1.00;;;25.70;99.90;;;;;;5073178;28;20204;-81
2021/06/20 06:36:59;;;;;;;1.63;0.60;;;25.80;99.90;;;;;;5077510;28;20210;-81
2021/06/20 06:39:26;;;;;;;1.60;0.47;;;25.80;99.90;;;;;;5075899;28;20565;-81
2021/06/20 06:41:52;;;;;;;0.40;0.40;;;25.80;99.90;;;;;;5074433;28;20205;-81
2021/06/20 06:44:18;;;;;;;0.60;0.60;;;25.80;99.90;;;;;;5075173;28;20191;-81
2021/06/20 06:46:44;;;;;;;0.73;0.73;;;25.70;99.90;;;;;;5076483;28;20193;-81
2021/06/20 06:49:10;;;;;;;0.60;0.47;;;25.70;99.90;;;;;;5074325;28;20235;-81
2021/06/20 06:51:35;;;;;;;5.50;0.67;;;25.90;99.90;;;;;;5071299;28;20607;-82
2021/06/20 06:54:01;;;;;;;0.20;0.20;;;26.10;99.90;;;;;;5076335;28;20179;-81
2021/06/20 06:56:27;;;;;;;1.40;1.37;;;26.30;99.90;;;;;;5070992;28;20668;-81
2021/06/20 06:58:52;;;;;;;0.30;0.30;;;26.20;99.90;;;;;;5099972;27;20718;-83
2021/06/20 07:01:18;;;;;;;0.50;0.50;;;26.00;99.90;;;;;;5070109;28;20181;-84
2021/06/20 07:03:44;;;;;;;0.40;0.40;;;26.10;99.90;;;;;;5076172;28;20348;-85
2021/06/20 07:06:12;;;;;;;1.30;0.80;;;26.10;99.90;;;;;;5068745;28;20185;-84
2021/06/20 07:08:38;;;;;;;0.60;0.50;;;26.20;99.90;;;;;;5069547;28;20258;-85
2021/06/20 07:11:05;;;;;;;1.20;0.93;;;26.50;99.90;;;;;;5070261;28;20280;-85
2021/06/20 07:13:31;;;;;;;0.40;0.40;;;26.60;99.90;;;;;;5064732;28;20201;-84
2021/06/20 07:15:57;;;;;;;0.80;0.80;;;26.70;99.90;;;;;;5064426;28;20173;-85
2021/06/20 07:18:22;;;;;;;0.43;0.43;;;26.80;99.90;;;;;;5066673;28;20184;-85
2021/06/20 07:20:48;;;;;;;0.40;0.40;;;26.80;99.90;;;;;;5070087;28;20180;-86
2021/06/20 07:23:14;;;;;;;0.80;0.80;;;26.90;99.90;;;;;;5066644;28;20307;-85
2021/06/20 07:25:40;;;;;;;0.40;0.40;;;26.70;99.90;;;;;;5067578;28;20196;-85
2021/06/20 07:28:07;;;;;;;0.30;0.30;;;26.80;99.90;;;;;;5067057;28;20177;-85
2021/06/20 07:30:33;;;;;;;0.93;0.93;;;26.90;99.90;;;;;;5083396;28;20200;-85
2021/06/20 07:32:59;;;;;;;0.73;0.73;;;26.90;99.90;;;;;;5065254;28;20201;-85
2021/06/20 07:35:25;;;;;;;1.33;1.17;;;27.00;99.90;;;;;;5064685;28;20272;-85
2021/06/20 07:37:51;;;;;;;0.43;0.43;;;27.00;99.90;;;;;;5067888;28;20530;-85
2021/06/20 07:40:17;;;;;;;0.60;0.50;;;26.90;99.90;;;;;;5101844;28;20192;-85
2021/06/20 07:42:44;;;;;;;0.60;0.60;;;26.70;99.90;;;;;;5086337;28;20669;-85
2021/06/20 07:45:11;;;;;;;0.60;0.50;;;26.70;99.90;;;;;;5069833;28;20181;-85
2021/06/20 07:47:37;;;;;;;2.87;1.47;;;26.60;99.90;;;;;;5066349;28;20191;-85
2021/06/20 07:50:05;;;;;;;1.07;0.40;;;26.70;99.90;;;;;;5064911;28;20227;-84
2021/06/20 07:52:31;;;;;;;1.73;1.10;;;26.60;99.90;;;;;;5068449;28;20538;-85
2021/06/20 07:54:56;;;;;;;0.40;0.40;;;26.60;99.90;;;;;;5069289;28;20172;-85
2021/06/20 07:57:23;;;;;;;0.47;0.47;;;26.80;99.90;;;;;;5070971;28;20177;-84
2021/06/20 07:59:49;;;;;;;0.50;0.50;;;26.90;99.90;;;;;;5073971;28;20185;-85
2021/06/20 08:02:15;;;;;;;0.67;0.60;;;27.10;99.90;;;;;;5069896;28;20252;-85
2021/06/20 08:04:41;;;;;;;0.87;0.87;;;27.30;99.90;;;;;;5075513;28;20203;-84
2021/06/20 08:07:08;;;;;;;0.37;0.37;;;27.30;99.90;;;;;;5068253;28;20177;-85
2021/06/20 08:09:33;;;;;;;0.40;0.40;;;27.20;99.90;;;;;;5069731;28;20569;-85
2021/06/20 08:12:00;;;;;;;0.63;0.60;;;27.20;99.90;;;;;;5069127;28;20201;-85
2021/06/20 08:14:26;;;;;;;1.03;0.93;;;27.60;99.90;;;;;;5074084;28;20180;-85
2021/06/20 08:16:52;;;;;;;0.40;0.40;;;27.80;99.90;;;;;;5077406;28;20278;-83
2021/06/20 08:19:18;;;;;;;0.50;0.50;;;27.70;99.90;;;;;;5076979;28;20232;-85
2021/06/20 08:21:47;;;;;;;1.17;0.60;;;27.70;99.90;;;;;;5069955;28;20238;-83
2021/06/20 08:24:13;;;;;;;0.70;0.70;;;27.80;99.90;;;;;;5092854;28;20233;-84
2021/06/20 08:26:40;;;;;;;0.70;0.70;;;28.00;99.90;;;;;;5084518;28;20604;-85
2021/06/20 08:29:07;;;;;;;0.77;0.70;;;28.10;99.90;;;;;;5075028;28;20239;-84
2021/06/20 08:31:34;;;;;;;2.10;2.00;;;27.70;99.90;;;;;;5067170;28;20280;-85
2021/06/20 08:34:00;;;;;;;1.20;0.40;;;27.40;99.90;;;;;;5072680;28;20535;-85
2021/06/20 08:36:27;;;;;;;0.53;0.53;;;27.90;99.90;;;;;;5069732;28;20177;-85
2021/06/20 08:38:52;;;;;;;0.47;0.47;;;28.10;99.90;;;;;;5069845;28;20186;-84
2021/06/20 08:41:21;;;;;;;0.50;0.50;;;28.10;99.90;;;;;;5074691;28;20520;-84
2021/06/20 08:43:46;;;;;;;0.63;0.63;;;28.20;99.90;;;;;;5070332;28;20728;-84
2021/06/20 08:46:12;;;;;;;0.30;0.30;;;28.10;99.90;;;;;;5070563;28;20181;-84
2021/06/20 08:48:38;;;;;;;1.20;0.97;;;28.20;99.90;;;;;;5081048;28;20213;-84
2021/06/20 08:51:06;;;;;;;0.60;0.60;;;28.30;99.90;;;;;;5066396;28;20235;-84
2021/06/20 08:53:31;;;;;;;0.53;0.53;;;28.20;99.90;;;;;;5053325;28;20250;-85
2021/06/20 08:55:58;;;;;;;0.50;0.50;;;28.40;99.90;;;;;;5054538;28;20181;-85
2021/06/20 08:58:27;;;;;;;0.45;0.45;;;28.80;99.90;;;;;;5054723;28;20189;-85
2021/06/20 09:00:55;;;;;;;0.70;0.70;;;28.80;99.90;;;;;;5058331;28;20533;-85
2021/06/20 09:03:21;;;;;;;0.68;0.68;;;29.00;99.90;;;;;;5077159;28;20205;-85
2021/06/20 09:06:01;;;;;;;4.03;0.83;;;28.70;99.90;;;;;;5070397;28;20195;-84
2021/06/20 09:08:27;;;;;;;0.47;0.47;;;28.70;99.90;;;;;;5063543;28;20281;-84
2021/06/20 09:10:55;;;;;;;1.90;1.38;;;28.90;99.90;;;;;;5072725;28;20205;-84
2021/06/20 09:13:20;;;;;;;0.60;0.60;;;28.60;99.90;;;;;;5073307;28;20197;-85
2021/06/20 09:16:01;;;;;;;0.60;0.60;;;29.00;99.90;;;;;;5072911;28;20188;-85
2021/06/20 09:18:27;;;;;;;0.52;0.52;;;29.30;99.90;;;;;;5087650;28;20554;-84
2021/06/20 09:20:53;;;;;;;0.47;0.47;;;29.50;99.90;;;;;;5082870;28;20176;-85
2021/06/20 09:23:19;;;;;;;0.40;0.40;;;29.60;99.90;;;;;;5073677;28;20244;-86
2021/06/20 09:25:54;;;;;;;0.45;0.45;;;29.60;99.90;;;;;;5074986;28;20185;-84
2021/06/20 09:28:19;;;;;;;0.75;0.60;;;29.50;99.90;;;;;;5076001;28;20200;-84
2021/06/20 09:30:50;;;;;;;0.40;0.40;;;29.70;99.90;;;;;;5073871;28;20177;-85
2021/06/20 09:33:17;;;;;;;0.47;0.47;;;29.60;99.90;;;;;;5066509;28;20224;-84
2021/06/20 09:35:52;;;;;;;0.55;0.55;;;29.60;99.90;;;;;;5074029;28;20306;-84
2021/06/20 09:38:25;;;;;;;1.17;0.95;;;29.80;99.90;;;;;;5077817;28;20656;-84
2021/06/20 09:41:05;;;;;;;1.05;1.05;;;29.80;99.90;;;;;;5075357;28;20180;-84
2021/06/20 09:43:36;;;;;;;0.30;0.30;;;29.70;99.90;;;;;;5065752;28;20225;-84
2021/06/20 09:46:02;;;;;;;0.50;0.50;;;29.50;99.90;;;;;;5074195;28;20222;-84
2021/06/20 09:48:31;;;;;;;0.40;0.40;;;29.50;99.90;;;;;;5076342;28;20208;-84
2021/06/20 09:51:00;;;;;;;0.57;0.57;;;29.40;99.90;;;;;;5073268;28;20188;-84
2021/06/20 09:53:40;;;;;;;0.60;0.50;;;29.40;99.90;;;;;;5086181;28;20192;-84
2021/06/20 09:56:28;;;;;;;1.35;1.05;;;29.30;99.90;;;;;;5078621;28;20244;-84
2021/06/20 09:59:07;;;;;;;0.85;0.50;;;29.20;99.90;;;;;;5110772;28;20160;-84
2021/06/20 10:01:42;;;;;;;0.77;0.70;;;29.50;99.90;;;;;;5097982;28;20196;-85
2021/06/20 10:04:07;;;;;;;0.80;0.60;;;29.70;99.90;;;;;;5091295;28;20189;-84
2021/06/20 10:06:33;;;;;;;0.50;0.50;;;29.70;99.90;;;;;;5073273;28;20238;-84
2021/06/20 10:08:59;;;;;;;0.60;0.60;;;29.60;99.90;;;;;;5072106;28;20266;-84
2021/06/20 10:11:25;;;;;;;0.60;0.43;;;29.80;99.90;;;;;;5073374;28;20184;-84
2021/06/20 10:13:51;;;;;;;0.68;0.68;;;29.80;99.90;;;;;;5073841;28;20197;-84
2021/06/20 10:16:22;;;;;;;3.67;0.73;;;29.70;99.90;;;;;;5070845;28;20698;-84
2021/06/20 10:19:13;;;;;;;0.63;0.63;;;29.60;99.90;;;;;;5073403;28;20184;-83
2021/06/20 10:21:44;;;;;;;0.98;0.90;;;29.80;99.90;;;;;;5073889;28;20239;-84
2021/06/20 10:24:18;;;;;;;0.70;0.70;;;29.80;99.90;;;;;;5073257;28;20185;-84
2021/06/20 10:27:00;;;;;;;1.05;0.65;;;29.90;99.90;;;;;;5061304;28;20185;-84
2021/06/20 10:29:29;;;;;;;0.80;0.80;;;30.00;99.90;;;;;;5078011;28;20232;-83
2021/06/20 10:31:57;;;;;;;2.28;0.50;;;30.30;99.90;;;;;;5077159;28;20197;-84
2021/06/20 10:34:31;;;;;;;0.52;0.52;;;30.30;99.90;;;;;;5073742;28;20196;-85
2021/06/20 10:37:00;;;;;;;1.08;0.55;;;30.30;99.90;;;;;;5074313;28;20185;-84
2021/06/20 10:39:27;;;;;;;0.40;0.40;;;30.30;99.90;;;;;;5071749;28;20185;-85
2021/06/20 10:42:07;;;;;;;0.50;0.50;;;30.30;99.90;;;;;;5072600;28;20685;-85
2021/06/20 10:44:50;;;;;;;0.85;0.85;;;30.40;99.90;;;;;;5074198;28;20180;-84
2021/06/20 10:47:26;;;;;;;0.50;0.50;;;30.20;99.90;;;;;;5075551;28;20189;-85
2021/06/20 10:49:58;;;;;;;0.85;0.80;;;30.50;99.90;;;;;;5071094;28;20201;-84
2021/06/20 10:52:24;;;;;;;0.32;0.32;;;30.20;99.90;;;;;;5071617;28;20212;-84
2021/06/20 10:54:52;;;;;;;0.88;0.85;;;30.20;99.90;;;;;;5073732;28;20567;-85
2021/06/20 10:57:27;;;;;;;0.95;0.65;;;30.10;99.90;;;;;;5074599;28;20169;-85
2021/06/20 10:59:57;;;;;;;0.63;0.63;;;30.10;99.90;;;;;;5075541;28;20180;-84
2021/06/20 11:02:34;;;;;;;1.00;0.93;;;30.00;99.90;;;;;;5069639;28;20613;-85
2021/06/20 11:05:00;;;;;;;0.50;0.50;;;30.10;99.90;;;;;;5067797;28;20244;-85
2021/06/20 11:07:34;;;;;;;1.17;0.55;;;30.40;99.90;;;;;;5073798;28;20609;-85
2021/06/20 11:10:04;;;;;;;0.68;0.68;;;30.60;99.90;;;;;;5096038;28;20281;-85
2021/06/20 11:12:29;;;;;;;0.68;0.68;;;30.60;99.90;;;;;;5096716;28;20185;-85
2021/06/20 11:14:57;;;;;;;1.35;0.82;;;30.60;99.90;;;;;;5090408;28;20189;-85
2021/06/20 11:17:33;;;;;;;0.55;0.47;;;30.70;99.90;;;;;;5095273;28;20186;-85
2021/06/20 11:20:10;;;;;;;0.40;0.40;;;30.80;99.90;;;;;;5084320;28;20203;-85
2021/06/20 11:22:36;;;;;;;0.80;0.80;;;30.80;99.90;;;;;;5081155;28;20216;-82
2021/06/20 11:25:01;;;;;;;0.82;0.80;;;30.00;99.90;;;;;;5089967;28;20181;-82
2021/06/20 11:27:28;;;;;;;0.60;0.60;;;30.40;99.90;;;;;;5088024;28;20535;-83
2021/06/20 11:29:57;;;;;;;0.40;0.40;;;30.80;99.90;;;;;;5083637;28;20749;-82
2021/06/20 11:32:30;;;;;;;0.60;0.60;;;31.00;99.90;;;;;;5079629;28;20221;-82
2021/06/20 11:35:01;;;;;;;0.45;0.45;;;31.20;99.90;;;;;;5075824;28;20185;-83
2021/06/20 11:37:32;;;;;;;0.60;0.57;;;31.20;99.90;;;;;;5076085;28;20181;-83
2021/06/20 11:40:00;;;;;;;1.25;0.65;;;31.20;99.90;;;;;;5072380;28;20242;-82
2021/06/20 11:42:30;;;;;;;0.68;0.47;;;31.10;99.90;;;;;;5072156;28;20227;-82
2021/06/20 11:44:57;;;;;;;1.00;0.95;;;31.20;99.90;;;;;;5075251;28;20189;-83
2021/06/20 11:47:36;;;;;;;0.80;0.80;;;31.40;99.90;;;;;;5074065;28;20185;-83
2021/06/20 11:50:24;;;;;;;2.70;0.43;;;31.30;99.90;;;;;;5074769;28;20205;-83
2021/06/20 11:52:58;;;;;;;0.43;0.43;;;31.40;99.90;;;;;;5074315;28;20193;-83
2021/06/20 11:55:26;;;;;;;0.50;0.50;;;31.20;99.90;;;;;;5074753;28;20185;-83
2021/06/20 11:57:54;;;;;;;0.60;0.60;;;30.90;99.90;;;;;;5073756;28;20177;-82
2021/06/20 12:00:29;;;;;;;0.50;0.50;;;30.70;99.90;;;;;;5072211;28;20204;-83
2021/06/20 12:03:06;;;;;;;0.60;0.60;;;30.70;99.90;;;;;;5064696;28;20205;-82
2021/06/20 12:05:33;;;;;;;0.65;0.60;;;31.20;99.90;;;;;;5075648;28;20189;-82
2021/06/20 12:08:06;;;;;;;0.60;0.60;;;31.50;99.90;;;;;;5073905;28;20185;-83
2021/06/20 12:10:33;;;;;;;0.55;0.55;;;31.50;99.90;;;;;;5073858;28;20185;-82
2021/06/20 12:13:04;;;;;;;0.30;0.30;;;31.70;99.90;;;;;;5073651;28;20197;-82
2021/06/20 12:15:33;;;;;;;0.75;0.75;;;32.10;99.90;;;;;;5075061;28;20204;-82
2021/06/20 12:18:09;;;;;;;0.57;0.40;;;32.30;99.90;;;;;;5074475;28;20173;-82
2021/06/20 12:20:39;;;;;;;0.82;0.75;;;32.50;99.90;;;;;;5069959;28;20267;-82
2021/06/20 12:23:07;;;;;;;0.52;0.52;;;32.50;99.90;;;;;;5074517;28;20240;-83
2021/06/20 12:25:46;;;;;;;0.77;0.35;;;31.60;99.90;;;;;;5075366;28;20176;-82
2021/06/20 12:28:13;;;;;;;0.85;0.85;;;31.10;99.90;;;;;;5108604;28;20242;-82
2021/06/20 12:30:45;;;;;;;0.30;0.30;;;31.30;99.90;;;;;;5074378;28;20260;-82
2021/06/20 12:33:12;;;;;;;0.75;0.60;;;31.70;99.90;;;;;;5079895;28;20189;-82
2021/06/20 12:35:39;;;;;;;0.40;0.38;;;32.10;99.90;;;;;;5081434;28;20183;-82
2021/06/20 12:38:19;;;;;;;0.50;0.50;;;32.10;99.90;;;;;;5080839;28;20181;-83
2021/06/20 12:40:45;;;;;;;0.50;0.45;;;31.70;99.90;;;;;;5081449;28;20235;-83
2021/06/20 12:43:19;;;;;;;2.22;1.40;;;31.90;99.90;;;;;;5080756;28;20201;-83
2021/06/20 12:45:46;;;;;;;0.93;0.80;;;32.20;99.90;;;;;;5082955;28;20177;-82
2021/06/20 12:48:17;;;;;;;1.45;0.93;;;32.20;99.90;;;;;;5077813;28;20184;-81
2021/06/20 12:50:51;;;;;;;0.85;0.75;;;31.10;99.90;;;;;;5080728;28;20181;-81
2021/06/20 12:53:30;;;;;;;0.43;0.43;;;31.50;99.90;;;;;;5080311;28;20219;-81